Time;durP1;ratioP1;P1;durP2;ratioP2;P2;SDS_P1;SDS_P2;PMS_P1;PMS_P2;Temp;Humidity;BMP_temperature;BMP_pressure;BME280_temperature;BME280_humidity;BME280_pressure;Samples;Min_cycle;Max_cycle;Signal;HPM_P1;HPM_P2
2022/04/13 00:01:17;;;;;;;4.10;1.55;;;16.40;56.10;;;;;;5069692;28;20512;-46
2022/04/13 00:03:54;;;;;;;;;;;;;;;;;;;;;
2022/04/13 00:06:25;;;;;;;1.30;1.20;;;16.40;56.50;;;;;;5058600;28;20059;-45
2022/04/13 00:08:55;;;;;;;5.03;1.70;;;16.40;56.60;;;;;;5068661;28;20044;-46
2022/04/13 00:11:29;;;;;;;1.23;1.10;;;16.40;56.80;;;;;;5066510;28;20033;-47
2022/04/13 00:13:56;;;;;;;1.98;1.50;;;16.40;56.90;;;;;;5054786;28;20049;-47
2022/04/13 00:16:25;;;;;;;2.38;1.80;;;16.40;57.00;;;;;;5053430;28;20041;-46
2022/04/13 00:18:52;;;;;;;1.85;1.67;;;16.40;57.20;;;;;;5049266;28;20843;-47
2022/04/13 00:21:20;;;;;;;2.17;1.48;;;16.40;57.30;;;;;;5061162;28;20102;-48
2022/04/13 00:23:46;;;;;;;2.55;2.20;;;16.50;57.60;;;;;;5066476;28;20110;-46
2022/04/13 00:26:13;;;;;;;2.03;1.30;;;16.50;57.80;;;;;;5062183;28;20397;-49
2022/04/13 00:28:44;;;;;;;5.80;1.98;;;16.50;57.80;;;;;;5063403;28;20052;-49
2022/04/13 00:31:10;;;;;;;2.55;1.52;;;16.50;57.80;;;;;;5066658;28;20106;-49
2022/04/13 00:33:41;;;;;;;3.08;1.55;;;16.50;57.90;;;;;;5068059;28;20052;-47
2022/04/13 00:36:10;;;;;;;2.00;1.50;;;16.50;57.90;;;;;;5061486;28;20044;-47
2022/04/13 00:38:37;;;;;;;2.10;1.70;;;16.50;58.20;;;;;;5049577;28;20678;-46
2022/04/13 00:41:03;;;;;;;3.72;1.77;;;16.50;57.90;;;;;;5055434;28;20036;-46
2022/04/13 00:43:43;;;;;;;2.30;1.58;;;16.50;57.90;;;;;;5067548;28;20041;-45
2022/04/13 00:46:10;;;;;;;3.67;1.92;;;16.50;57.80;;;;;;5062082;28;20044;-49
2022/04/13 00:48:43;;;;;;;4.40;1.48;;;16.50;57.80;;;;;;5065609;28;20044;-49
2022/04/13 00:51:12;;;;;;;1.75;1.58;;;16.50;57.80;;;;;;5065033;28;20033;-45
2022/04/13 00:53:41;;;;;;;3.95;1.58;;;16.50;57.80;;;;;;5060518;28;20051;-46
2022/04/13 00:56:15;;;;;;;2.05;1.70;;;16.40;57.70;;;;;;5067440;28;20106;-47
2022/04/13 00:58:49;;;;;;;2.50;1.50;;;16.40;57.50;;;;;;5066235;28;20033;-46
2022/04/13 01:01:16;;;;;;;2.65;1.58;;;16.30;57.40;;;;;;5070773;28;20056;-48
2022/04/13 01:03:47;;;;;;;1.77;1.52;;;16.40;57.30;;;;;;5056923;28;20135;-45
2022/04/13 01:06:17;;;;;;;3.42;1.50;;;16.30;57.40;;;;;;5052368;28;20071;-48
2022/04/13 01:08:48;;;;;;;3.60;2.10;;;16.30;57.40;;;;;;5060396;28;20393;-49
2022/04/13 01:11:15;;;;;;;4.10;1.80;;;16.30;57.50;;;;;;5071648;28;20097;-46
2022/04/13 01:13:42;;;;;;;2.85;1.50;;;16.30;57.50;;;;;;5071036;28;20500;-49
2022/04/13 01:16:10;;;;;;;4.82;1.42;;;16.20;57.50;;;;;;5059471;28;20041;-45
2022/04/13 01:18:36;;;;;;;4.07;1.60;;;16.20;57.50;;;;;;5051213;28;20044;-47
2022/04/13 01:21:05;;;;;;;3.00;1.77;;;16.20;57.50;;;;;;5063955;28;20028;-47
2022/04/13 01:23:34;;;;;;;4.72;2.20;;;16.20;57.60;;;;;;5072468;28;20066;-46
2022/04/13 01:26:10;;;;;;;4.88;1.90;;;16.20;57.60;;;;;;5064674;28;20064;-49
2022/04/13 01:28:40;;;;;;;3.97;1.67;;;16.20;57.70;;;;;;5063551;28;20102;-48
2022/04/13 01:31:06;;;;;;;4.25;1.50;;;16.20;57.60;;;;;;5067759;28;20037;-49
2022/04/13 01:33:40;;;;;;;2.85;1.50;;;16.10;57.50;;;;;;5068624;28;20088;-48
2022/04/13 01:36:09;;;;;;;3.35;1.70;;;16.10;58.00;;;;;;5070076;28;20454;-44
2022/04/13 01:38:37;;;;;;;4.43;1.50;;;16.10;57.50;;;;;;5070867;28;20048;-48
2022/04/13 01:41:07;;;;;;;4.05;2.08;;;16.10;57.40;;;;;;5045554;28;20611;-49
2022/04/13 01:43:37;;;;;;;4.50;2.28;;;16.10;57.90;;;;;;5071167;28;20048;-45
2022/04/13 01:46:08;;;;;;;4.88;2.50;;;16.10;57.30;;;;;;5051400;28;20098;-47
2022/04/13 01:48:37;;;;;;;4.43;2.30;;;16.00;56.60;;;;;;5052779;28;20105;-48
2022/04/13 01:51:03;;;;;;;3.00;2.53;;;16.00;56.30;;;;;;5064348;28;20079;-50
2022/04/13 01:53:32;;;;;;;6.32;2.58;;;16.00;56.70;;;;;;5072037;28;20040;-47
2022/04/13 01:55:59;;;;;;;4.65;2.25;;;16.10;56.20;;;;;;5065923;28;20048;-46
2022/04/13 01:58:30;;;;;;;4.00;2.42;;;16.10;56.70;;;;;;5063917;28;20112;-46
2022/04/13 02:00:58;;;;;;;7.60;2.17;;;16.10;56.30;;;;;;5071568;28;20389;-49
2022/04/13 02:03:35;;;;;;;4.57;2.42;;;16.10;56.60;;;;;;5063936;28;20033;-47
2022/04/13 02:06:03;;;;;;;3.63;2.63;;;16.20;56.80;;;;;;5065265;28;20040;-46
2022/04/13 02:08:33;;;;;;;4.32;2.35;;;16.20;56.20;;;;;;5063269;28;20098;-46
2022/04/13 02:11:00;;;;;;;6.43;2.25;;;16.20;55.90;;;;;;5051396;28;20099;-47
2022/04/13 02:13:30;;;;;;;6.53;2.63;;;16.20;55.70;;;;;;5057329;28;20048;-47
2022/04/13 02:15:59;;;;;;;5.15;2.55;;;16.30;56.00;;;;;;5064061;28;20090;-49
2022/04/13 02:18:29;;;;;;;5.55;2.08;;;16.30;55.70;;;;;;5045354;28;20047;-46
2022/04/13 02:20:58;;;;;;;3.92;2.72;;;16.30;55.60;;;;;;5071451;28;20037;-50
2022/04/13 02:23:27;;;;;;;6.78;2.35;;;16.40;55.70;;;;;;5063568;28;20037;-50
2022/04/13 02:25:54;;;;;;;5.03;1.95;;;16.40;55.60;;;;;;5069320;28;20072;-49
2022/04/13 02:28:24;;;;;;;3.53;2.30;;;16.50;55.30;;;;;;5062046;28;20052;-49
2022/04/13 02:30:51;;;;;;;4.88;2.42;;;16.50;55.50;;;;;;5071294;28;20113;-44
2022/04/13 02:33:18;;;;;;;6.40;2.38;;;16.60;55.40;;;;;;5066183;28;20095;-45
2022/04/13 02:35:44;;;;;;;6.10;2.40;;;16.70;55.30;;;;;;5068136;28;20090;-49
2022/04/13 02:38:11;;;;;;;4.80;2.13;;;16.80;55.00;;;;;;5064470;28;20407;-48
2022/04/13 02:40:38;;;;;;;4.75;2.30;;;16.80;55.00;;;;;;5069973;28;20036;-46
2022/04/13 02:43:22;;;;;;;7.20;2.40;;;16.80;55.20;;;;;;5064352;28;20094;-45
2022/04/13 02:45:51;;;;;;;4.50;2.75;;;16.90;54.70;;;;;;5060493;28;20500;-49
2022/04/13 02:48:23;;;;;;;5.65;2.38;;;16.90;54.60;;;;;;5070080;28;20612;-48
2022/04/13 02:50:52;;;;;;;6.03;2.58;;;16.90;54.50;;;;;;5066677;28;20052;-45
2022/04/13 02:53:22;;;;;;;4.22;2.30;;;16.90;54.60;;;;;;5064906;28;20099;-47
2022/04/13 02:55:55;;;;;;;7.18;2.88;;;17.00;54.40;;;;;;5067939;28;20092;-49
2022/04/13 02:58:21;;;;;;;8.25;2.47;;;17.00;54.00;;;;;;5053109;28;20063;-49
2022/04/13 03:00:55;;;;;;;6.18;2.72;;;17.10;54.00;;;;;;5064433;28;20047;-45
2022/04/13 03:03:24;;;;;;;6.55;2.72;;;17.00;54.00;;;;;;5063698;28;20044;-50
2022/04/13 03:05:52;;;;;;;5.13;2.42;;;17.10;54.10;;;;;;5060335;28;20044;-45
2022/04/13 03:08:21;;;;;;;5.38;2.60;;;17.10;53.90;;;;;;5070181;28;20068;-46
2022/04/13 03:10:48;;;;;;;5.85;2.70;;;17.10;54.00;;;;;;5063044;28;20040;-48
2022/04/13 03:13:22;;;;;;;5.05;2.78;;;17.10;53.90;;;;;;5054000;28;20056;-49
2022/04/13 03:15:54;;;;;;;8.35;3.00;;;17.10;53.70;;;;;;5038202;28;20070;-47
2022/04/13 03:18:21;;;;;;;;;;;17.20;53.90;;;;;;5067965;28;20090;-49
2022/04/13 03:20:50;;;;;;;4.47;2.30;;;17.20;54.10;;;;;;5063463;28;20387;-45
2022/04/13 03:23:17;;;;;;;9.60;3.40;;;17.20;53.50;;;;;;5063691;28;20049;-48
2022/04/13 03:25:43;;;;;;;4.53;2.53;;;17.20;53.50;;;;;;5066121;28;20047;-49
2022/04/13 03:28:10;;;;;;;8.05;3.45;;;17.20;53.50;;;;;;5067133;28;20454;-46
2022/04/13 03:30:37;;;;;;;6.50;2.90;;;17.20;53.60;;;;;;5069441;28;20110;-48
2022/04/13 03:33:07;;;;;;;10.77;2.90;;;17.20;53.50;;;;;;5061877;28;20101;-49
2022/04/13 03:35:37;;;;;;;9.10;3.83;;;17.20;53.50;;;;;;5048838;28;20093;-48
2022/04/13 03:38:06;;;;;;;5.47;2.70;;;17.20;53.60;;;;;;5065671;28;20035;-49
2022/04/13 03:40:32;;;;;;;5.97;2.55;;;17.20;53.60;;;;;;5069328;28;20045;-47
2022/04/13 03:43:05;;;;;;;6.72;2.90;;;17.20;54.20;;;;;;5058419;28;20032;-45
2022/04/13 03:45:34;;;;;;;5.15;3.00;;;17.20;54.00;;;;;;5048400;28;20049;-48
2022/04/13 03:48:03;;;;;;;7.53;3.22;;;17.20;54.00;;;;;;5063310;28;20085;-47
2022/04/13 03:50:32;;;;;;;4.72;3.17;;;17.20;54.20;;;;;;5061463;28;20408;-45
2022/04/13 03:53:01;;;;;;;4.95;2.47;;;17.10;54.50;;;;;;5069807;28;20102;-45
2022/04/13 03:55:28;;;;;;;6.45;2.97;;;17.10;55.00;;;;;;5063242;28;20043;-48
2022/04/13 03:57:55;;;;;;;4.38;2.88;;;17.00;54.80;;;;;;5048572;28;20484;-44
2022/04/13 04:00:22;;;;;;;6.63;3.15;;;17.00;54.90;;;;;;5063818;28;20071;-49
2022/04/13 04:02:48;;;;;;;6.32;3.13;;;16.90;55.00;;;;;;5067521;28;20067;-44
2022/04/13 04:05:17;;;;;;;6.13;2.97;;;16.90;55.20;;;;;;5065191;28;20037;-45
2022/04/13 04:07:49;;;;;;;7.82;3.00;;;16.80;55.40;;;;;;5067806;28;20090;-45
2022/04/13 04:10:18;;;;;;;6.72;2.85;;;16.70;55.70;;;;;;5054389;28;20037;-45
2022/04/13 04:12:47;;;;;;;6.13;2.88;;;16.70;55.60;;;;;;5053456;28;20057;-48
2022/04/13 04:15:14;;;;;;;6.45;3.35;;;16.60;55.80;;;;;;5060862;28;20068;-46
2022/04/13 04:17:42;;;;;;;7.97;3.50;;;16.50;55.90;;;;;;5065888;28;20037;-48
2022/04/13 04:20:12;;;;;;;7.25;3.42;;;16.40;55.90;;;;;;5061328;28;20039;-45
2022/04/13 04:22:39;;;;;;;4.78;3.10;;;16.30;56.10;;;;;;5051614;28;20044;-47
2022/04/13 04:25:07;;;;;;;4.40;2.92;;;16.20;56.10;;;;;;5043099;28;20428;-47
2022/04/13 04:27:34;;;;;;;3.88;2.72;;;16.20;56.30;;;;;;5062989;28;20048;-47
2022/04/13 04:30:01;;;;;;;6.00;2.90;;;16.00;56.40;;;;;;5056888;28;20044;-47
2022/04/13 04:32:28;;;;;;;4.97;3.25;;;16.00;56.70;;;;;;5068322;28;20044;-49
2022/04/13 04:34:58;;;;;;;4.40;3.20;;;15.90;56.90;;;;;;5064869;28;20036;-46
2022/04/13 04:37:25;;;;;;;4.63;3.15;;;15.80;57.30;;;;;;5068163;28;20451;-49
2022/04/13 04:39:51;;;;;;;4.88;2.95;;;15.80;57.20;;;;;;5065540;28;20044;-45
2022/04/13 04:42:18;;;;;;;4.57;2.80;;;15.70;57.20;;;;;;5071399;28;20523;-47
2022/04/13 04:44:46;;;;;;;4.47;2.90;;;15.60;57.40;;;;;;5060371;28;20044;-49
2022/04/13 04:47:12;;;;;;;4.50;2.95;;;15.60;57.60;;;;;;5062420;28;20048;-48
2022/04/13 04:49:40;;;;;;;4.95;2.75;;;15.50;57.70;;;;;;5059644;28;20102;-46
2022/04/13 04:52:07;;;;;;;4.00;2.58;;;15.40;57.70;;;;;;5059051;28;20044;-46
2022/04/13 04:54:34;;;;;;;6.15;2.85;;;15.40;57.80;;;;;;5064319;28;20118;-47
2022/04/13 04:57:00;;;;;;;4.35;3.35;;;15.30;57.90;;;;;;5061186;28;20040;-48
2022/04/13 04:59:27;;;;;;;3.92;2.38;;;15.30;58.00;;;;;;5055602;28;20131;-46
2022/04/13 05:01:54;;;;;;;3.80;2.55;;;15.20;58.00;;;;;;5059795;28;20462;-48
2022/04/13 05:04:20;;;;;;;3.17;2.40;;;15.10;58.10;;;;;;5058278;28;20045;-45
2022/04/13 05:06:47;;;;;;;4.72;3.08;;;15.10;58.20;;;;;;5053019;28;20126;-45
2022/04/13 05:09:17;;;;;;;6.03;3.58;;;15.00;58.40;;;;;;5046480;28;20053;-49
2022/04/13 05:11:44;;;;;;;6.65;3.10;;;15.00;58.60;;;;;;5063961;28;20483;-44
2022/04/13 05:14:11;;;;;;;5.22;3.08;;;15.00;58.70;;;;;;5056162;28;20052;-49
2022/04/13 05:16:38;;;;;;;4.57;2.95;;;14.90;58.80;;;;;;5054225;28;20073;-47
2022/04/13 05:19:05;;;;;;;5.80;3.45;;;14.90;58.90;;;;;;5050482;28;20041;-44
2022/04/13 05:21:31;;;;;;;5.85;3.15;;;14.90;59.00;;;;;;5057830;28;20463;-44
2022/04/13 05:23:58;;;;;;;5.95;3.15;;;14.90;59.10;;;;;;5068254;28;20044;-44
2022/04/13 05:26:25;;;;;;;5.85;3.22;;;14.90;59.30;;;;;;5054018;28;20127;-50
2022/04/13 05:28:52;;;;;;;6.15;3.88;;;14.80;59.40;;;;;;5050045;28;20099;-47
2022/04/13 05:31:18;;;;;;;7.25;3.08;;;14.80;59.60;;;;;;5061809;28;20076;-47
2022/04/13 05:33:45;;;;;;;7.13;3.80;;;14.80;59.70;;;;;;5068939;28;20127;-46
2022/04/13 05:36:12;;;;;;;5.22;3.67;;;14.80;59.80;;;;;;5061712;28;20600;-49
2022/04/13 05:38:40;;;;;;;8.07;4.32;;;14.80;60.00;;;;;;5069850;28;20113;-45
2022/04/13 05:41:06;;;;;;;6.03;4.05;;;14.80;60.00;;;;;;5066207;28;20290;-48
2022/04/13 05:43:36;;;;;;;7.07;4.50;;;14.80;60.10;;;;;;5062238;28;20045;-48
2022/04/13 05:46:05;;;;;;;5.80;4.00;;;14.90;60.40;;;;;;5065050;28;20455;-51
2022/04/13 05:48:34;;;;;;;7.80;4.20;;;14.90;60.20;;;;;;5066061;28;20446;-49
2022/04/13 05:51:02;;;;;;;10.75;4.63;;;14.90;60.30;;;;;;5061612;28;20128;-48
2022/04/13 05:53:29;;;;;;;5.50;3.75;;;14.90;60.30;;;;;;5062765;28;20049;-50
2022/04/13 05:55:56;;;;;;;7.85;3.80;;;15.00;60.50;;;;;;5062195;28;20056;-46
2022/04/13 05:58:24;;;;;;;11.23;5.35;;;15.00;60.60;;;;;;5049313;28;20052;-45
2022/04/13 06:00:54;;;;;;;8.50;4.60;;;15.00;60.50;;;;;;5066102;28;20083;-45
2022/04/13 06:03:23;;;;;;;13.50;5.30;;;15.10;60.80;;;;;;5060994;28;20090;-46
2022/04/13 06:06:06;;;;;;;9.05;4.90;;;15.10;60.60;;;;;;5069794;28;20397;-46
2022/04/13 06:08:33;;;;;;;8.90;4.85;;;15.20;60.60;;;;;;5064025;28;20048;-45
2022/04/13 06:11:02;;;;;;;10.02;5.60;;;15.20;60.70;;;;;;5061697;28;20036;-45
2022/04/13 06:13:29;;;;;;;7.57;4.70;;;15.30;60.50;;;;;;5070277;28;20044;-45
2022/04/13 06:15:56;;;;;;;8.48;5.43;;;15.40;60.60;;;;;;5056185;28;20043;-48
2022/04/13 06:18:23;;;;;;;8.07;5.60;;;15.40;60.60;;;;;;5064695;28;20043;-47
2022/04/13 06:20:50;;;;;;;8.40;6.20;;;15.50;60.60;;;;;;5063103;28;20037;-45
2022/04/13 06:23:18;;;;;;;10.52;5.65;;;15.70;61.00;;;;;;5059331;28;20041;-49
2022/04/13 06:25:44;;;;;;;8.18;4.88;;;15.60;61.00;;;;;;5054639;28;20155;-44
2022/04/13 06:28:11;;;;;;;9.20;5.53;;;15.70;61.20;;;;;;5065371;28;20040;-45
2022/04/13 06:30:38;;;;;;;7.50;5.20;;;15.80;61.20;;;;;;5062575;28;20069;-47
2022/04/13 06:33:07;;;;;;;9.27;5.35;;;15.90;61.10;;;;;;5070215;28;20040;-45
2022/04/13 06:35:38;;;;;;;9.25;5.38;;;15.90;61.30;;;;;;5048669;28;20040;-44
2022/04/13 06:38:05;;;;;;;9.27;6.75;;;16.00;60.80;;;;;;5070550;28;20036;-49
2022/04/13 06:40:32;;;;;;;9.02;6.18;;;16.10;60.70;;;;;;5062840;28;20044;-47
2022/04/13 06:42:58;;;;;;;12.75;6.20;;;16.20;60.60;;;;;;5070089;28;20068;-49
2022/04/13 06:45:26;;;;;;;13.75;6.88;;;16.30;60.30;;;;;;5046816;28;20119;-49
2022/04/13 06:47:52;;;;;;;12.60;6.82;;;16.30;60.20;;;;;;5068936;28;20052;-46
2022/04/13 06:50:19;;;;;;;10.32;5.78;;;16.40;60.10;;;;;;5062157;28;20115;-47
2022/04/13 06:52:46;;;;;;;12.15;7.05;;;16.50;60.10;;;;;;5069544;28;20556;-49
2022/04/13 06:55:13;;;;;;;11.68;6.00;;;16.60;60.00;;;;;;5065440;28;20072;-45
2022/04/13 06:57:40;;;;;;;12.38;6.25;;;16.70;59.90;;;;;;5060942;28;20520;-47
2022/04/13 07:00:08;;;;;;;7.20;5.18;;;16.80;59.70;;;;;;5069591;28;20053;-46
2022/04/13 07:02:36;;;;;;;10.38;5.90;;;16.90;59.60;;;;;;5069453;28;20548;-46
2022/04/13 07:05:27;;;;;;;6.07;4.78;;;17.00;59.40;;;;;;5061772;28;20037;-46
2022/04/13 07:07:58;;;;;;;12.90;5.55;;;17.10;59.20;;;;;;5066988;28;20605;-46
2022/04/13 07:10:28;;;;;;;11.18;6.22;;;17.20;59.10;;;;;;5049578;28;20037;-47
2022/04/13 07:12:58;;;;;;;11.85;5.53;;;17.30;59.00;;;;;;5055737;28;20110;-46
2022/04/13 07:15:25;;;;;;;9.23;5.03;;;17.40;59.10;;;;;;5057117;28;20040;-48
2022/04/13 07:17:53;;;;;;;8.75;5.28;;;17.50;59.60;;;;;;5059425;28;20095;-46
2022/04/13 07:20:20;;;;;;;8.40;5.43;;;17.50;59.00;;;;;;5069915;28;20040;-45
2022/04/13 07:22:48;;;;;;;8.40;5.45;;;17.60;58.70;;;;;;5066246;28;20443;-48
2022/04/13 07:25:19;;;;;;;8.50;5.70;;;17.70;58.80;;;;;;5066364;28;20087;-45
2022/04/13 07:27:47;;;;;;;11.40;5.78;;;17.80;58.80;;;;;;5060238;28;20049;-45
2022/04/13 07:30:14;;;;;;;8.77;4.45;;;17.80;58.60;;;;;;5067095;28;20068;-48
2022/04/13 07:32:45;;;;;;;8.23;4.80;;;17.90;58.60;;;;;;5066561;28;20044;-46
2022/04/13 07:35:13;;;;;;;6.85;5.13;;;18.00;59.10;;;;;;5061688;28;20048;-48
2022/04/13 07:37:46;;;;;;;6.03;4.18;;;18.00;58.80;;;;;;5069139;28;20127;-47
2022/04/13 07:40:14;;;;;;;8.25;4.28;;;18.10;58.60;;;;;;5061288;28;20033;-49
2022/04/13 07:42:43;;;;;;;8.18;3.75;;;18.20;58.70;;;;;;5055475;28;20519;-50
2022/04/13 07:45:10;;;;;;;8.45;4.75;;;18.20;58.70;;;;;;5061656;28;20045;-48
2022/04/13 07:47:37;;;;;;;6.93;4.20;;;18.30;58.80;;;;;;5050697;28;20056;-47
2022/04/13 07:50:05;;;;;;;8.35;4.65;;;18.30;58.80;;;;;;5062469;28;20048;-47
2022/04/13 07:52:34;;;;;;;6.57;3.85;;;18.40;58.80;;;;;;5056612;28;20048;-44
2022/04/13 07:55:01;;;;;;;6.68;4.13;;;18.40;58.90;;;;;;5060959;28;20039;-46
2022/04/13 07:57:29;;;;;;;7.07;3.40;;;18.50;59.00;;;;;;5046959;28;20045;-49
2022/04/13 07:59:55;;;;;;;6.07;3.67;;;18.60;59.10;;;;;;5067287;28;20045;-45
2022/04/13 08:02:22;;;;;;;9.38;3.60;;;18.60;59.50;;;;;;5065510;28;20393;-48
2022/04/13 08:04:49;;;;;;;5.88;2.60;;;18.70;59.60;;;;;;5053724;28;20044;-45
2022/04/13 08:07:16;;;;;;;5.55;3.15;;;18.80;59.10;;;;;;5057086;28;20120;-49
2022/04/13 08:09:43;;;;;;;6.35;3.17;;;19.10;59.30;;;;;;5066302;28;20078;-48
2022/04/13 08:12:10;;;;;;;10.20;3.53;;;19.00;59.10;;;;;;5065536;28;20503;-49
2022/04/13 08:14:37;;;;;;;5.78;3.55;;;19.10;58.70;;;;;;5052236;28;20504;-45
2022/04/13 08:17:05;;;;;;;4.97;2.70;;;19.10;58.10;;;;;;5064711;28;20044;-49
2022/04/13 08:19:32;;;;;;;5.43;2.63;;;19.20;58.80;;;;;;5067710;28;20043;-46
2022/04/13 08:21:59;;;;;;;5.70;3.10;;;19.20;58.40;;;;;;5072939;28;20162;-49
2022/04/13 08:24:28;;;;;;;6.55;3.03;;;19.20;57.70;;;;;;5062391;28;20068;-49
2022/04/13 08:26:55;;;;;;;7.82;2.67;;;19.20;57.90;;;;;;5053518;28;20162;-49
2022/04/13 08:29:24;;;;;;;4.57;2.33;;;19.30;58.40;;;;;;5054931;28;20094;-46
2022/04/13 08:31:50;;;;;;;5.53;3.35;;;19.30;58.00;;;;;;5066317;28;20044;-48
2022/04/13 08:34:17;;;;;;;5.63;2.38;;;19.30;58.10;;;;;;5054022;28;20044;-46
2022/04/13 08:36:44;;;;;;;4.88;2.17;;;19.30;57.80;;;;;;5055066;28;20489;-49
2022/04/13 08:39:13;;;;;;;5.05;2.50;;;19.30;58.30;;;;;;5059761;28;20048;-49
2022/04/13 08:41:48;;;;;;;6.60;2.72;;;19.30;58.50;;;;;;5057879;28;20041;-49
2022/04/13 08:44:22;;;;;;;3.35;2.00;;;19.30;58.90;;;;;;5058504;28;20041;-46
2022/04/13 08:46:55;;;;;;;3.53;2.10;;;19.30;59.00;;;;;;5037806;28;20053;-47
2022/04/13 08:49:22;;;;;;;5.57;2.40;;;19.30;58.50;;;;;;5069062;28;20040;-46
2022/04/13 08:52:02;;;;;;;4.35;2.33;;;19.30;58.60;;;;;;5060713;28;20041;-47
2022/04/13 08:54:31;;;;;;;5.55;2.40;;;19.30;58.70;;;;;;5056547;28;20388;-49
2022/04/13 08:56:58;;;;;;;6.78;2.20;;;19.40;58.40;;;;;;5067741;28;20040;-49
2022/04/13 09:00:07;;;;;;;5.28;3.00;;;19.30;58.00;;;;;;5067520;28;20572;-48
2022/04/13 09:02:43;;;;;;;5.35;2.70;;;19.40;58.70;;;;;;5056787;28;20512;-46
2022/04/13 09:05:14;;;;;;;9.18;2.70;;;19.30;58.40;;;;;;5060571;28;20650;-46
2022/04/13 09:07:42;;;;;;;5.05;2.63;;;19.30;58.30;;;;;;5067960;28;20515;-49
2022/04/13 09:10:16;;;;;;;5.32;2.60;;;19.50;58.90;;;;;;5061034;28;20045;-49
2022/04/13 09:12:49;;;;;;;6.57;2.67;;;19.40;58.90;;;;;;5060588;28;20508;-49
2022/04/13 09:15:19;;;;;;;4.13;2.40;;;19.50;58.30;;;;;;5040192;28;20063;-47
2022/04/13 09:17:51;;;;;;;4.32;2.60;;;19.50;58.10;;;;;;5068756;28;20029;-48
2022/04/13 09:20:18;;;;;;;7.07;3.70;;;19.60;58.50;;;;;;5058207;28;20045;-48
2022/04/13 09:22:46;;;;;;;3.80;2.35;;;19.60;58.60;;;;;;5058345;28;20040;-48
2022/04/13 09:25:13;;;;;;;8.60;2.90;;;19.70;58.20;;;;;;5068640;28;20040;-46
2022/04/13 09:27:40;;;;;;;5.30;2.72;;;19.80;57.60;;;;;;5069924;28;20262;-50
2022/04/13 09:30:10;;;;;;;7.20;2.85;;;19.80;57.70;;;;;;5062758;28;20076;-49
2022/04/13 09:32:38;;;;;;;5.43;3.00;;;19.90;57.40;;;;;;5055348;28;20452;-48
2022/04/13 09:35:05;;;;;;;5.03;3.00;;;20.00;57.20;;;;;;5068861;28;21035;-48
2022/04/13 09:37:34;;;;;;;5.18;2.85;;;20.10;57.30;;;;;;5070155;28;20048;-46
2022/04/13 09:40:00;;;;;;;7.20;3.08;;;20.20;57.30;;;;;;5046280;28;20048;-47
2022/04/13 09:42:27;;;;;;;7.72;2.95;;;20.30;56.90;;;;;;5071135;28;20102;-50
2022/04/13 09:44:58;;;;;;;5.18;2.70;;;20.30;56.60;;;;;;5066272;28;20418;-48
2022/04/13 09:47:33;;;;;;;4.45;2.60;;;20.40;56.30;;;;;;5070339;28;20056;-48
2022/04/13 09:50:00;;;;;;;5.22;2.80;;;20.50;56.70;;;;;;5062971;28;20052;-49
2022/04/13 09:52:39;;;;;;;5.82;3.15;;;20.60;55.90;;;;;;5047512;28;20045;-44
2022/04/13 09:55:10;;;;;;;5.47;3.20;;;20.70;56.50;;;;;;5066378;28;20101;-48
2022/04/13 09:57:40;;;;;;;5.07;2.50;;;20.80;55.90;;;;;;5061634;28;20809;-51
2022/04/13 10:00:10;;;;;;;4.78;2.65;;;20.80;55.80;;;;;;5051790;28;20115;-51
2022/04/13 10:02:44;;;;;;;5.70;2.88;;;20.90;55.00;;;;;;5057446;28;20045;-48
2022/04/13 10:05:16;;;;;;;4.43;2.85;;;21.00;55.40;;;;;;5061855;28;20408;-48
2022/04/13 10:07:44;;;;;;;6.25;3.00;;;21.00;55.00;;;;;;5065857;28;20776;-49
2022/04/13 10:10:24;;;;;;;3.28;2.35;;;21.10;55.40;;;;;;5052473;28;20045;-47
2022/04/13 10:12:53;;;;;;;;;;;21.10;54.30;;;;;;5059341;28;20044;-49
2022/04/13 10:15:20;;;;;;;4.70;2.10;;;21.20;54.60;;;;;;5054168;28;19928;-47
2022/04/13 10:17:47;;;;;;;4.05;3.10;;;21.30;54.20;;;;;;5052229;28;20072;-45
2022/04/13 10:20:14;;;;;;;7.80;2.92;;;21.30;54.40;;;;;;5051713;28;20045;-49
2022/04/13 10:23:01;;;;;;;8.95;3.58;;;21.40;54.50;;;;;;5060643;28;20083;-48
2022/04/13 10:25:29;;;;;;;6.50;3.47;;;21.40;54.20;;;;;;5057495;28;20128;-48
2022/04/13 10:28:01;;;;;;;4.93;3.10;;;21.40;54.10;;;;;;5068339;28;20036;-48
2022/04/13 10:30:31;;;;;;;4.20;3.58;;;21.50;54.30;;;;;;5062254;28;20051;-48
2022/04/13 10:33:03;;;;;;;4.95;2.95;;;21.50;54.00;;;;;;5051250;28;20048;-45
2022/04/13 10:35:33;;;;;;;7.15;3.45;;;21.50;53.40;;;;;;5061846;28;20044;-48
2022/04/13 10:38:00;;;;;;;5.40;3.08;;;21.50;53.70;;;;;;5069572;28;20057;-46
2022/04/13 10:40:35;;;;;;;4.10;2.75;;;21.50;54.40;;;;;;5070245;28;20036;-46
2022/04/13 10:43:04;;;;;;;5.07;3.28;;;21.50;53.30;;;;;;5070100;28;20111;-48
2022/04/13 10:45:33;;;;;;;8.55;3.20;;;21.50;53.70;;;;;;5068632;28;20063;-48
2022/04/13 10:48:08;;;;;;;7.63;2.95;;;21.50;54.10;;;;;;5067866;28;20076;-49
2022/04/13 10:50:54;;;;;;;6.63;3.10;;;21.50;54.60;;;;;;5063287;28;20047;-50
2022/04/13 10:53:33;;;;;;;6.32;4.35;;;21.60;53.70;;;;;;5058498;28;20053;-47
2022/04/13 10:56:10;;;;;;;7.65;4.32;;;21.60;53.80;;;;;;5068763;28;20078;-49
2022/04/13 10:58:45;;;;;;;9.88;5.13;;;21.60;53.50;;;;;;5065882;28;20040;-46
2022/04/13 11:01:13;;;;;;;6.03;3.63;;;21.70;53.30;;;;;;5065945;28;20467;-49
2022/04/13 11:03:42;;;;;;;3.25;2.83;;;21.70;53.30;;;;;;5066110;28;20068;-45
2022/04/13 11:06:10;;;;;;;5.43;3.10;;;21.80;53.00;;;;;;5067640;28;20048;-47
2022/04/13 11:08:50;;;;;;;5.95;2.70;;;21.90;53.10;;;;;;5063266;28;20542;-46
2022/04/13 11:11:20;;;;;;;4.57;3.10;;;21.90;52.30;;;;;;5060255;28;20119;-47
2022/04/13 11:13:50;;;;;;;5.22;3.10;;;22.10;52.20;;;;;;5053591;28;20101;-49
2022/04/13 11:16:22;;;;;;;8.32;3.33;;;22.20;52.20;;;;;;5059860;28;20048;-50
2022/04/13 11:19:01;;;;;;;6.05;3.05;;;22.30;51.70;;;;;;5067484;28;20045;-45
2022/04/13 11:21:31;;;;;;;4.85;2.88;;;22.40;51.60;;;;;;5066784;28;20412;-45
2022/04/13 11:23:58;;;;;;;5.30;3.40;;;22.50;52.00;;;;;;5057188;28;20217;-49
2022/04/13 11:26:34;;;;;;;7.20;3.90;;;22.50;51.10;;;;;;5057251;28;20094;-48
2022/04/13 11:29:18;;;;;;;5.95;4.30;;;22.60;50.90;;;;;;5065818;28;20045;-49
2022/04/13 11:32:04;;;;;;;8.57;4.90;;;22.60;51.10;;;;;;5062359;28;20573;-49
2022/04/13 11:34:50;;;;;;;10.02;4.70;;;22.70;51.40;;;;;;5051623;28;20449;-50
2022/04/13 11:37:33;;;;;;;7.50;5.13;;;22.70;50.60;;;;;;5065866;28;20040;-48
2022/04/13 11:40:06;;;;;;;9.93;6.07;;;22.80;50.70;;;;;;5067377;28;20174;-48
2022/04/13 11:42:36;;;;;;;6.93;5.82;;;22.70;50.30;;;;;;5064332;28;20037;-47
2022/04/13 11:45:16;;;;;;;12.65;7.13;;;22.70;50.70;;;;;;5067172;28;20036;-50
2022/04/13 11:47:58;;;;;;;9.75;7.15;;;22.70;50.60;;;;;;5066374;28;20050;-50
2022/04/13 11:50:33;;;;;;;9.90;8.32;;;22.80;51.40;;;;;;5059430;28;20051;-49
2022/04/13 11:53:09;;;;;;;8.20;6.68;;;22.70;51.70;;;;;;5058445;28;20036;-48
2022/04/13 11:55:39;;;;;;;9.93;7.40;;;22.70;51.80;;;;;;5060139;28;20040;-49
2022/04/13 11:58:09;;;;;;;9.13;6.40;;;22.70;51.40;;;;;;5055728;28;20037;-45
2022/04/13 12:00:41;;;;;;;9.05;6.97;;;22.80;51.10;;;;;;5038361;28;20101;-50
2022/04/13 12:03:16;;;;;;;7.25;5.95;;;22.90;51.00;;;;;;5057531;28;20028;-49
2022/04/13 12:05:49;;;;;;;10.00;6.60;;;23.00;50.30;;;;;;5057032;28;20033;-45
2022/04/13 12:08:25;;;;;;;10.95;7.65;;;23.00;50.70;;;;;;5056402;28;20037;-48
2022/04/13 12:11:05;;;;;;;9.02;6.25;;;23.10;50.20;;;;;;5057578;28;20086;-48
2022/04/13 12:13:45;;;;;;;9.73;6.68;;;23.20;50.00;;;;;;5057234;28;20098;-50
2022/04/13 12:16:26;;;;;;;12.20;7.43;;;23.20;50.50;;;;;;5057278;28;20090;-49
2022/04/13 12:18:58;;;;;;;7.28;6.57;;;23.40;49.70;;;;;;5061499;28;20047;-49
2022/04/13 12:21:29;;;;;;;9.32;6.63;;;23.40;49.60;;;;;;5059312;28;20388;-47
2022/04/13 12:23:56;;;;;;;7.53;6.82;;;23.50;50.10;;;;;;5060915;28;20057;-49
2022/04/13 12:26:31;;;;;;;7.60;6.47;;;23.60;49.40;;;;;;5058835;28;20563;-49
2022/04/13 12:28:58;;;;;;;7.60;6.53;;;23.70;49.30;;;;;;5056393;28;20044;-48
2022/04/13 12:31:27;;;;;;;6.70;6.10;;;23.80;48.80;;;;;;5040044;28;20063;-49
2022/04/13 12:34:01;;;;;;;7.28;6.57;;;23.90;49.00;;;;;;5061053;28;20131;-46
2022/04/13 12:36:28;;;;;;;8.13;7.30;;;23.90;48.50;;;;;;5059650;28;20052;-50
2022/04/13 12:38:55;;;;;;;8.30;6.80;;;23.90;48.20;;;;;;5056240;28;20044;-46
2022/04/13 12:41:22;;;;;;;7.10;6.45;;;23.90;47.60;;;;;;5055962;28;20087;-48
2022/04/13 12:44:01;;;;;;;8.43;7.20;;;23.80;47.40;;;;;;5059538;28;20033;-47
2022/04/13 12:46:30;;;;;;;9.63;8.60;;;23.70;47.30;;;;;;5057362;28;20044;-49
2022/04/13 12:49:05;;;;;;;9.82;8.85;;;23.70;47.50;;;;;;5058181;28;20123;-46
2022/04/13 12:51:37;;;;;;;11.70;10.50;;;23.50;47.80;;;;;;5039599;28;20488;-48
2022/04/13 12:54:06;;;;;;;13.57;11.77;;;23.50;48.20;;;;;;5058441;28;20049;-48
2022/04/13 12:56:35;;;;;;;14.98;12.35;;;23.50;48.70;;;;;;5051389;28;20102;-45
2022/04/13 12:59:02;;;;;;;12.45;11.23;;;23.50;49.10;;;;;;5070839;28;20431;-48
2022/04/13 13:01:29;;;;;;;12.40;11.25;;;23.50;49.20;;;;;;5064309;28;20044;-47